sensor_id;sensor_type;location;lat;lon;timestamp;pressure;altitude;pressure_sealevel;temperature;humidity
6144;BME280;3103;49.492;8.474;2023-07-31T00:00:06;100460.88;;;20.83;51.65
6144;BME280;3103;49.492;8.474;2023-07-31T00:02:36;100462.19;;;20.86;51.85
6144;BME280;3103;49.492;8.474;2023-07-31T00:05:03;100458.03;;;20.74;51.82
6144;BME280;3103;49.492;8.474;2023-07-31T00:07:30;100460.03;;;20.83;51.73
6144;BME280;3103;49.492;8.474;2023-07-31T00:09:57;100454.91;;;20.67;52.32
6144;BME280;3103;49.492;8.474;2023-07-31T00:12:25;100454.56;;;20.83;51.89
6144;BME280;3103;49.492;8.474;2023-07-31T00:14:52;100456.94;;;20.75;52.03
6144;BME280;3103;49.492;8.474;2023-07-31T00:17:19;100449.94;;;20.83;52.07
6144;BME280;3103;49.492;8.474;2023-07-31T00:19:46;100451.59;;;20.70;52.49
6144;BME280;3103;49.492;8.474;2023-07-31T00:22:16;100448.25;;;20.60;53.15
6144;BME280;3103;49.492;8.474;2023-07-31T00:24:43;100444.72;;;20.59;53.05
6144;BME280;3103;49.492;8.474;2023-07-31T00:27:10;100439.09;;;20.42;54.06
6144;BME280;3103;49.492;8.474;2023-07-31T00:29:37;100448.88;;;20.70;53.44
6144;BME280;3103;49.492;8.474;2023-07-31T00:32:04;100446.00;;;20.75;53.43
6144;BME280;3103;49.492;8.474;2023-07-31T00:34:31;100443.00;;;20.63;54.32
6144;BME280;3103;49.492;8.474;2023-07-31T00:36:59;100443.91;;;20.72;53.72
6144;BME280;3103;49.492;8.474;2023-07-31T00:39:30;100439.28;;;20.59;54.53
6144;BME280;3103;49.492;8.474;2023-07-31T00:41:57;100442.28;;;20.71;53.87
6144;BME280;3103;49.492;8.474;2023-07-31T00:44:24;100445.94;;;20.53;54.46
6144;BME280;3103;49.492;8.474;2023-07-31T00:46:53;100441.19;;;20.59;53.93
6144;BME280;3103;49.492;8.474;2023-07-31T00:49:22;100448.66;;;20.67;53.83
6144;BME280;3103;49.492;8.474;2023-07-31T00:51:49;100435.94;;;20.35;55.07
6144;BME280;3103;49.492;8.474;2023-07-31T00:54:18;100437.03;;;20.34;55.35
6144;BME280;3103;49.492;8.474;2023-07-31T00:56:46;100435.25;;;20.43;55.47
6144;BME280;3103;49.492;8.474;2023-07-31T00:59:15;100440.09;;;20.46;55.36
6144;BME280;3103;49.492;8.474;2023-07-31T01:01:42;100433.34;;;20.43;55.43
6144;BME280;3103;49.492;8.474;2023-07-31T01:04:09;100427.63;;;20.54;55.12
6144;BME280;3103;49.492;8.474;2023-07-31T01:06:47;100426.63;;;20.36;55.38
6144;BME280;3103;49.492;8.474;2023-07-31T01:12:01;100433.63;;;20.28;56.26
6144;BME280;3103;49.492;8.474;2023-07-31T01:14:32;100429.66;;;20.34;55.68
6144;BME280;3103;49.492;8.474;2023-07-31T01:17:00;100428.06;;;20.33;55.67
6144;BME280;3103;49.492;8.474;2023-07-31T01:19:27;100426.03;;;20.11;56.55
6144;BME280;3103;49.492;8.474;2023-07-31T01:22:12;100416.72;;;20.12;56.41
6144;BME280;3103;49.492;8.474;2023-07-31T01:25:08;100421.59;;;20.15;56.37
6144;BME280;3103;49.492;8.474;2023-07-31T01:27:53;100414.22;;;20.16;56.59
6144;BME280;3103;49.492;8.474;2023-07-31T01:30:24;100418.66;;;19.98;57.48
6144;BME280;3103;49.492;8.474;2023-07-31T01:32:52;100424.31;;;20.02;57.35
6144;BME280;3103;49.492;8.474;2023-07-31T01:35:22;100426.44;;;19.91;57.67
6144;BME280;3103;49.492;8.474;2023-07-31T01:37:52;100424.63;;;20.14;56.82
6144;BME280;3103;49.492;8.474;2023-07-31T01:40:20;100418.44;;;20.08;56.97
6144;BME280;3103;49.492;8.474;2023-07-31T01:42:46;100415.22;;;19.93;57.55
6144;BME280;3103;49.492;8.474;2023-07-31T01:45:14;100412.59;;;20.01;57.13
6144;BME280;3103;49.492;8.474;2023-07-31T01:47:41;100407.34;;;19.91;57.48
6144;BME280;3103;49.492;8.474;2023-07-31T01:50:08;100417.75;;;19.89;57.67
6144;BME280;3103;49.492;8.474;2023-07-31T01:52:35;100408.94;;;19.78;58.09
6144;BME280;3103;49.492;8.474;2023-07-31T01:55:04;100407.75;;;19.71;58.30
6144;BME280;3103;49.492;8.474;2023-07-31T01:57:31;100409.97;;;19.96;57.64
6144;BME280;3103;49.492;8.474;2023-07-31T01:59:58;100405.72;;;19.90;57.72
6144;BME280;3103;49.492;8.474;2023-07-31T02:02:25;100401.56;;;19.79;58.20
6144;BME280;3103;49.492;8.474;2023-07-31T02:04:52;100404.50;;;19.82;57.61
6144;BME280;3103;49.492;8.474;2023-07-31T02:07:21;100391.88;;;19.73;58.03
6144;BME280;3103;49.492;8.474;2023-07-31T02:09:48;100380.47;;;19.71;58.48
6144;BME280;3103;49.492;8.474;2023-07-31T02:12:15;100378.63;;;19.66;58.66
6144;BME280;3103;49.492;8.474;2023-07-31T02:14:43;100376.03;;;19.75;58.37
6144;BME280;3103;49.492;8.474;2023-07-31T02:17:10;100370.97;;;19.68;58.52
6144;BME280;3103;49.492;8.474;2023-07-31T02:19:57;100373.31;;;19.75;58.32
6144;BME280;3103;49.492;8.474;2023-07-31T02:22:24;100374.09;;;19.62;58.83
6144;BME280;3103;49.492;8.474;2023-07-31T02:24:51;100374.72;;;19.72;58.08
6144;BME280;3103;49.492;8.474;2023-07-31T02:27:17;100367.25;;;19.78;58.27
6144;BME280;3103;49.492;8.474;2023-07-31T02:29:45;100380.88;;;19.64;58.84
6144;BME280;3103;49.492;8.474;2023-07-31T02:32:12;100368.81;;;19.51;58.95
6144;BME280;3103;49.492;8.474;2023-07-31T02:34:39;100369.56;;;19.57;58.92
6144;BME280;3103;49.492;8.474;2023-07-31T02:37:07;100364.38;;;19.55;59.07
6144;BME280;3103;49.492;8.474;2023-07-31T02:39:34;100369.22;;;19.45;59.39
6144;BME280;3103;49.492;8.474;2023-07-31T02:42:01;100368.41;;;19.44;59.69
6144;BME280;3103;49.492;8.474;2023-07-31T02:44:29;100358.72;;;19.52;59.34
6144;BME280;3103;49.492;8.474;2023-07-31T02:46:56;100368.91;;;19.46;59.70
6144;BME280;3103;49.492;8.474;2023-07-31T02:49:23;100366.06;;;19.51;59.28
6144;BME280;3103;49.492;8.474;2023-07-31T02:51:50;100365.13;;;19.42;59.48
6144;BME280;3103;49.492;8.474;2023-07-31T02:54:19;100371.69;;;19.41;59.66
6144;BME280;3103;49.492;8.474;2023-07-31T02:56:48;100361.72;;;19.37;59.75
6144;BME280;3103;49.492;8.474;2023-07-31T02:59:18;100358.38;;;19.40;59.65
6144;BME280;3103;49.492;8.474;2023-07-31T03:01:47;100350.28;;;19.21;60.19
6144;BME280;3103;49.492;8.474;2023-07-31T03:04:14;100352.31;;;19.29;59.93
6144;BME280;3103;49.492;8.474;2023-07-31T03:06:44;100346.28;;;19.32;59.99
6144;BME280;3103;49.492;8.474;2023-07-31T03:09:12;100353.44;;;19.42;59.13
6144;BME280;3103;49.492;8.474;2023-07-31T03:11:39;100352.63;;;19.41;59.17
6144;BME280;3103;49.492;8.474;2023-07-31T03:14:07;100363.03;;;19.39;59.34
6144;BME280;3103;49.492;8.474;2023-07-31T03:16:34;100357.56;;;19.39;58.99
6144;BME280;3103;49.492;8.474;2023-07-31T03:19:01;100363.44;;;19.33;59.28
6144;BME280;3103;49.492;8.474;2023-07-31T03:21:28;100350.50;;;19.38;59.14
6144;BME280;3103;49.492;8.474;2023-07-31T03:23:55;100351.22;;;19.30;59.17
6144;BME280;3103;49.492;8.474;2023-07-31T03:26:23;100362.13;;;19.30;59.30
6144;BME280;3103;49.492;8.474;2023-07-31T03:28:50;100357.38;;;19.36;59.24
6144;BME280;3103;49.492;8.474;2023-07-31T03:31:17;100359.59;;;19.34;59.18
6144;BME280;3103;49.492;8.474;2023-07-31T03:33:44;100353.34;;;19.33;59.25
6144;BME280;3103;49.492;8.474;2023-07-31T03:36:11;100351.22;;;19.30;59.54
6144;BME280;3103;49.492;8.474;2023-07-31T03:38:38;100343.84;;;19.31;59.31
6144;BME280;3103;49.492;8.474;2023-07-31T03:41:07;100357.16;;;19.32;59.47
6144;BME280;3103;49.492;8.474;2023-07-31T03:43:36;100349.88;;;19.27;59.76
6144;BME280;3103;49.492;8.474;2023-07-31T03:46:03;100355.22;;;19.19;60.21
6144;BME280;3103;49.492;8.474;2023-07-31T03:48:30;100350.69;;;19.28;59.78
6144;BME280;3103;49.492;8.474;2023-07-31T03:50:57;100352.53;;;19.33;59.68
6144;BME280;3103;49.492;8.474;2023-07-31T03:53:24;100351.72;;;19.32;59.74
6144;BME280;3103;49.492;8.474;2023-07-31T03:55:51;100349.31;;;19.31;59.92
6144;BME280;3103;49.492;8.474;2023-07-31T03:58:18;100359.16;;;19.26;59.81
6144;BME280;3103;49.492;8.474;2023-07-31T04:00:45;100346.94;;;19.24;60.03
6144;BME280;3103;49.492;8.474;2023-07-31T04:03:13;100344.22;;;19.24;59.56
6144;BME280;3103;49.492;8.474;2023-07-31T04:05:40;100346.53;;;19.17;60.20
6144;BME280;3103;49.492;8.474;2023-07-31T04:08:07;100347.06;;;19.19;60.02
6144;BME280;3103;49.492;8.474;2023-07-31T04:10:34;100356.94;;;19.15;60.42
6144;BME280;3103;49.492;8.474;2023-07-31T04:13:01;100350.06;;;19.17;60.20
6144;BME280;3103;49.492;8.474;2023-07-31T04:15:28;100347.22;;;19.09;60.68
6144;BME280;3103;49.492;8.474;2023-07-31T04:17:55;100365.25;;;19.05;60.89
6144;BME280;3103;49.492;8.474;2023-07-31T04:20:22;100358.53;;;19.16;60.43
6144;BME280;3103;49.492;8.474;2023-07-31T04:22:49;100362.13;;;19.11;60.40
6144;BME280;3103;49.492;8.474;2023-07-31T04:25:16;100345.75;;;19.16;60.18
6144;BME280;3103;49.492;8.474;2023-07-31T04:27:43;100352.06;;;19.12;60.27
6144;BME280;3103;49.492;8.474;2023-07-31T04:30:10;100350.69;;;19.14;60.42
6144;BME280;3103;49.492;8.474;2023-07-31T04:32:37;100348.94;;;19.05;60.37
6144;BME280;3103;49.492;8.474;2023-07-31T04:35:04;100358.09;;;19.09;60.53
6144;BME280;3103;49.492;8.474;2023-07-31T04:37:32;100348.75;;;19.15;60.43
6144;BME280;3103;49.492;8.474;2023-07-31T04:39:58;100342.72;;;19.18;59.91
6144;BME280;3103;49.492;8.474;2023-07-31T04:42:25;100340.97;;;19.08;60.52
6144;BME280;3103;49.492;8.474;2023-07-31T04:44:52;100334.09;;;19.11;60.46
6144;BME280;3103;49.492;8.474;2023-07-31T04:47:20;100332.50;;;19.10;60.47
6144;BME280;3103;49.492;8.474;2023-07-31T04:49:48;100334.03;;;19.16;60.23
6144;BME280;3103;49.492;8.474;2023-07-31T04:52:14;100344.13;;;19.15;60.24
6144;BME280;3103;49.492;8.474;2023-07-31T04:54:42;100337.94;;;19.10;60.65
6144;BME280;3103;49.492;8.474;2023-07-31T04:57:08;100349.94;;;19.09;60.91
6144;BME280;3103;49.492;8.474;2023-07-31T04:59:37;100347.22;;;19.09;60.64
6144;BME280;3103;49.492;8.474;2023-07-31T05:02:04;100336.53;;;19.12;60.92
6144;BME280;3103;49.492;8.474;2023-07-31T05:04:31;100332.69;;;19.13;60.81
6144;BME280;3103;49.492;8.474;2023-07-31T05:06:58;100333.63;;;19.22;60.78
6144;BME280;3103;49.492;8.474;2023-07-31T05:09:25;100346.75;;;19.20;60.79
6144;BME280;3103;49.492;8.474;2023-07-31T05:11:52;100338.78;;;19.24;60.50
6144;BME280;3103;49.492;8.474;2023-07-31T05:14:20;100347.72;;;19.11;61.00
6144;BME280;3103;49.492;8.474;2023-07-31T05:16:48;100341.78;;;19.09;61.26
6144;BME280;3103;49.492;8.474;2023-07-31T05:19:15;100332.50;;;19.10;61.17
6144;BME280;3103;49.492;8.474;2023-07-31T05:21:42;100342.28;;;19.11;61.42
6144;BME280;3103;49.492;8.474;2023-07-31T05:24:10;100340.28;;;19.16;61.15
6144;BME280;3103;49.492;8.474;2023-07-31T05:26:37;100336.81;;;19.11;61.43
6144;BME280;3103;49.492;8.474;2023-07-31T05:29:06;100332.50;;;19.10;61.42
6144;BME280;3103;49.492;8.474;2023-07-31T05:31:33;100337.63;;;19.11;61.36
6144;BME280;3103;49.492;8.474;2023-07-31T05:34:00;100329.97;;;19.13;61.31
6144;BME280;3103;49.492;8.474;2023-07-31T05:36:27;100318.16;;;19.04;61.63
6144;BME280;3103;49.492;8.474;2023-07-31T05:38:54;100330.38;;;19.07;61.52
6144;BME280;3103;49.492;8.474;2023-07-31T05:41:21;100332.63;;;19.18;61.34
6144;BME280;3103;49.492;8.474;2023-07-31T05:43:49;100330.19;;;19.17;61.25
6144;BME280;3103;49.492;8.474;2023-07-31T05:46:18;100325.38;;;19.27;61.01
6144;BME280;3103;49.492;8.474;2023-07-31T05:48:47;100324.19;;;19.34;60.80
6144;BME280;3103;49.492;8.474;2023-07-31T05:51:15;100327.28;;;19.27;61.06
6144;BME280;3103;49.492;8.474;2023-07-31T05:53:42;100320.22;;;19.26;61.15
6144;BME280;3103;49.492;8.474;2023-07-31T05:56:10;100316.41;;;19.41;60.47
6144;BME280;3103;49.492;8.474;2023-07-31T05:58:37;100321.84;;;19.41;60.44
6144;BME280;3103;49.492;8.474;2023-07-31T06:01:04;100327.00;;;19.42;60.57
6144;BME280;3103;49.492;8.474;2023-07-31T06:03:31;100328.09;;;19.41;60.73
6144;BME280;3103;49.492;8.474;2023-07-31T06:05:58;100319.66;;;19.29;60.86
6144;BME280;3103;49.492;8.474;2023-07-31T06:08:25;100321.03;;;19.26;61.13
6144;BME280;3103;49.492;8.474;2023-07-31T06:10:52;100318.63;;;19.39;61.15
6144;BME280;3103;49.492;8.474;2023-07-31T06:13:19;100318.63;;;19.39;60.97
6144;BME280;3103;49.492;8.474;2023-07-31T06:15:46;100320.25;;;19.40;60.95
6144;BME280;3103;49.492;8.474;2023-07-31T06:18:14;100317.13;;;19.46;60.97
6144;BME280;3103;49.492;8.474;2023-07-31T06:20:41;100310.88;;;19.46;61.09
6144;BME280;3103;49.492;8.474;2023-07-31T06:23:08;100326.25;;;19.55;60.68
6144;BME280;3103;49.492;8.474;2023-07-31T06:25:35;100318.81;;;19.42;61.16
6144;BME280;3103;49.492;8.474;2023-07-31T06:28:02;100321.38;;;19.52;61.02
6144;BME280;3103;49.492;8.474;2023-07-31T06:30:30;100316.25;;;19.65;60.22
6144;BME280;3103;49.492;8.474;2023-07-31T06:32:57;100302.53;;;19.56;60.98
6144;BME280;3103;49.492;8.474;2023-07-31T06:35:24;100305.25;;;19.70;60.45
6144;BME280;3103;49.492;8.474;2023-07-31T06:37:51;100317.38;;;19.77;60.31
6144;BME280;3103;49.492;8.474;2023-07-31T06:40:18;100312.53;;;19.74;59.93
6144;BME280;3103;49.492;8.474;2023-07-31T06:42:46;100313.53;;;19.78;60.15
6144;BME280;3103;49.492;8.474;2023-07-31T06:45:13;100310.91;;;19.87;60.10
6144;BME280;3103;49.492;8.474;2023-07-31T06:47:40;100310.41;;;19.85;60.13
6144;BME280;3103;49.492;8.474;2023-07-31T06:50:07;100315.97;;;19.80;60.20
6144;BME280;3103;49.492;8.474;2023-07-31T06:52:35;100319.59;;;19.75;60.53
6144;BME280;3103;49.492;8.474;2023-07-31T06:55:18;100321.72;;;19.92;59.99
6144;BME280;3103;49.492;8.474;2023-07-31T06:57:47;100318.88;;;19.83;60.55
6144;BME280;3103;49.492;8.474;2023-07-31T07:00:15;100318.28;;;19.86;60.33
6144;BME280;3103;49.492;8.474;2023-07-31T07:02:42;100314.31;;;20.06;59.74
6144;BME280;3103;49.492;8.474;2023-07-31T07:05:09;100313.41;;;19.97;60.11
6144;BME280;3103;49.492;8.474;2023-07-31T07:07:36;100310.66;;;20.11;59.64
6144;BME280;3103;49.492;8.474;2023-07-31T07:10:04;100306.41;;;20.32;58.77
6144;BME280;3103;49.492;8.474;2023-07-31T07:12:32;100314.94;;;20.53;58.83
6144;BME280;3103;49.492;8.474;2023-07-31T07:15:00;100316.09;;;20.74;57.96
6144;BME280;3103;49.492;8.474;2023-07-31T07:17:32;100321.53;;;20.74;57.69
6144;BME280;3103;49.492;8.474;2023-07-31T07:20:00;100317.91;;;20.43;58.78
6144;BME280;3103;49.492;8.474;2023-07-31T07:22:30;100314.66;;;20.41;59.18
6144;BME280;3103;49.492;8.474;2023-07-31T07:24:57;100317.97;;;20.52;58.90
6144;BME280;3103;49.492;8.474;2023-07-31T07:27:24;100320.41;;;20.53;58.68
6144;BME280;3103;49.492;8.474;2023-07-31T07:29:51;100312.72;;;20.55;58.78
6144;BME280;3103;49.492;8.474;2023-07-31T07:32:21;100311.47;;;20.61;58.38
6144;BME280;3103;49.492;8.474;2023-07-31T07:34:48;100306.75;;;20.53;58.99
6144;BME280;3103;49.492;8.474;2023-07-31T07:37:16;100310.06;;;20.64;58.71
6144;BME280;3103;49.492;8.474;2023-07-31T07:39:43;100315.09;;;20.70;58.68
6144;BME280;3103;49.492;8.474;2023-07-31T07:42:11;100309.56;;;20.84;57.97
6144;BME280;3103;49.492;8.474;2023-07-31T07:44:38;100309.69;;;21.01;57.27
6144;BME280;3103;49.492;8.474;2023-07-31T07:47:05;100299.59;;;21.11;57.40
6144;BME280;3103;49.492;8.474;2023-07-31T07:49:35;100301.22;;;21.34;56.69
6144;BME280;3103;49.492;8.474;2023-07-31T07:52:03;100298.69;;;21.46;56.42
6144;BME280;3103;49.492;8.474;2023-07-31T07:54:30;100299.13;;;21.71;55.71
6144;BME280;3103;49.492;8.474;2023-07-31T07:56:59;100303.19;;;21.82;55.21
6144;BME280;3103;49.492;8.474;2023-07-31T07:59:26;100287.56;;;21.82;55.22
6144;BME280;3103;49.492;8.474;2023-07-31T08:01:53;100289.16;;;21.75;54.71
6144;BME280;3103;49.492;8.474;2023-07-31T08:04:20;100292.84;;;21.70;54.65
6144;BME280;3103;49.492;8.474;2023-07-31T08:06:46;100292.75;;;21.53;55.08
6144;BME280;3103;49.492;8.474;2023-07-31T08:09:13;100295.78;;;21.43;55.74
6144;BME280;3103;49.492;8.474;2023-07-31T08:11:40;100286.91;;;21.37;55.80
6144;BME280;3103;49.492;8.474;2023-07-31T08:14:07;100278.19;;;21.26;56.33
6144;BME280;3103;49.492;8.474;2023-07-31T08:16:34;100271.75;;;21.62;56.11
6144;BME280;3103;49.492;8.474;2023-07-31T08:19:01;100278.09;;;21.88;55.00
6144;BME280;3103;49.492;8.474;2023-07-31T08:21:28;100268.31;;;21.96;54.96
6144;BME280;3103;49.492;8.474;2023-07-31T08:23:55;100270.69;;;21.89;55.27
6144;BME280;3103;49.492;8.474;2023-07-31T08:26:22;100262.16;;;21.90;55.09
6144;BME280;3103;49.492;8.474;2023-07-31T08:28:49;100259.72;;;21.80;55.17
6144;BME280;3103;49.492;8.474;2023-07-31T08:31:16;100263.78;;;22.00;54.82
6144;BME280;3103;49.492;8.474;2023-07-31T08:33:45;100249.00;;;22.10;54.48
6144;BME280;3103;49.492;8.474;2023-07-31T08:36:12;100249.78;;;21.84;55.17
6144;BME280;3103;49.492;8.474;2023-07-31T08:38:39;100246.72;;;21.94;54.94
6144;BME280;3103;49.492;8.474;2023-07-31T08:41:06;100233.75;;;22.26;54.23
6144;BME280;3103;49.492;8.474;2023-07-31T08:43:34;100236.31;;;22.31;54.07
6144;BME280;3103;49.492;8.474;2023-07-31T08:46:01;100237.75;;;22.37;54.06
6144;BME280;3103;49.492;8.474;2023-07-31T08:48:29;100237.41;;;22.65;53.04
6144;BME280;3103;49.492;8.474;2023-07-31T08:50:57;100232.44;;;22.49;53.31
6144;BME280;3103;49.492;8.474;2023-07-31T08:53:25;100225.22;;;22.10;54.75
6144;BME280;3103;49.492;8.474;2023-07-31T08:55:53;100222.41;;;21.93;55.43
6144;BME280;3103;49.492;8.474;2023-07-31T08:58:22;100219.34;;;21.77;56.15
6144;BME280;3103;49.492;8.474;2023-07-31T09:00:52;100227.56;;;21.86;55.78
6144;BME280;3103;49.492;8.474;2023-07-31T09:03:26;100222.06;;;21.77;55.73
6144;BME280;3103;49.492;8.474;2023-07-31T09:05:56;100217.09;;;21.79;55.25
6144;BME280;3103;49.492;8.474;2023-07-31T09:08:30;100218.69;;;21.80;55.49
6144;BME280;3103;49.492;8.474;2023-07-31T09:11:02;100217.44;;;21.86;55.24
6144;BME280;3103;49.492;8.474;2023-07-31T09:13:32;100228.91;;;22.06;54.56
6144;BME280;3103;49.492;8.474;2023-07-31T09:15:59;100222.97;;;22.30;53.50
6144;BME280;3103;49.492;8.474;2023-07-31T09:18:27;100210.56;;;22.15;53.79
6144;BME280;3103;49.492;8.474;2023-07-31T09:21:01;100223.09;;;21.99;53.87
6144;BME280;3103;49.492;8.474;2023-07-31T09:23:46;100215.47;;;21.78;54.58
6144;BME280;3103;49.492;8.474;2023-07-31T09:26:34;100211.97;;;21.86;54.11
6144;BME280;3103;49.492;8.474;2023-07-31T09:29:04;100219.75;;;22.10;53.55
6144;BME280;3103;49.492;8.474;2023-07-31T09:31:42;100218.09;;;22.35;53.01
6144;BME280;3103;49.492;8.474;2023-07-31T09:34:09;100207.50;;;22.34;52.93
6144;BME280;3103;49.492;8.474;2023-07-31T09:36:42;100204.56;;;22.56;52.57
6144;BME280;3103;49.492;8.474;2023-07-31T09:39:13;100205.53;;;22.69;52.23
6144;BME280;3103;49.492;8.474;2023-07-31T09:41:43;100205.03;;;22.67;52.66
6144;BME280;3103;49.492;8.474;2023-07-31T09:44:11;100191.16;;;22.72;52.17
6144;BME280;3103;49.492;8.474;2023-07-31T09:46:38;100199.84;;;22.74;52.13
6144;BME280;3103;49.492;8.474;2023-07-31T09:49:10;100183.47;;;22.57;52.54
6144;BME280;3103;49.492;8.474;2023-07-31T09:51:41;100176.06;;;22.57;52.76
6144;BME280;3103;49.492;8.474;2023-07-31T09:54:13;100190.09;;;22.47;53.14
6144;BME280;3103;49.492;8.474;2023-07-31T09:56:46;100187.38;;;22.38;53.58
6144;BME280;3103;49.492;8.474;2023-07-31T09:59:16;100182.53;;;22.35;53.65
6144;BME280;3103;49.492;8.474;2023-07-31T10:01:46;100166.78;;;22.32;53.59
6144;BME280;3103;49.492;8.474;2023-07-31T10:04:15;100175.13;;;22.44;53.34
6144;BME280;3103;49.492;8.474;2023-07-31T10:06:46;100167.19;;;22.51;53.23
6144;BME280;3103;49.492;8.474;2023-07-31T10:09:18;100161.72;;;22.51;53.00
6144;BME280;3103;49.492;8.474;2023-07-31T10:11:56;100164.94;;;22.62;53.01
6144;BME280;3103;49.492;8.474;2023-07-31T10:14:27;100170.25;;;22.59;52.69
6144;BME280;3103;49.492;8.474;2023-07-31T10:16:57;100165.25;;;22.69;52.24
6144;BME280;3103;49.492;8.474;2023-07-31T10:19:26;100159.72;;;22.78;51.86
6144;BME280;3103;49.492;8.474;2023-07-31T10:21:54;100150.91;;;22.64;51.91
6144;BME280;3103;49.492;8.474;2023-07-31T10:24:24;100156.22;;;22.69;51.94
6144;BME280;3103;49.492;8.474;2023-07-31T10:26:52;100151.91;;;22.50;52.23
6144;BME280;3103;49.492;8.474;2023-07-31T10:29:21;100145.75;;;22.62;51.84
6144;BME280;3103;49.492;8.474;2023-07-31T10:31:48;100144.63;;;22.72;52.07
6144;BME280;3103;49.492;8.474;2023-07-31T10:34:17;100155.25;;;22.73;51.64
6144;BME280;3103;49.492;8.474;2023-07-31T10:36:43;100156.38;;;22.72;51.63
6144;BME280;3103;49.492;8.474;2023-07-31T10:39:37;100151.19;;;22.79;51.75
6144;BME280;3103;49.492;8.474;2023-07-31T10:42:13;100146.84;;;22.78;52.14
6144;BME280;3103;49.492;8.474;2023-07-31T10:44:46;100130.78;;;22.68;51.96
6144;BME280;3103;49.492;8.474;2023-07-31T10:47:17;100129.19;;;22.67;52.17
6144;BME280;3103;49.492;8.474;2023-07-31T10:49:45;100145.91;;;22.66;52.54
6144;BME280;3103;49.492;8.474;2023-07-31T10:52:19;100151.38;;;22.74;51.38
6144;BME280;3103;49.492;8.474;2023-07-31T10:57:53;100148.31;;;22.76;50.26
6144;BME280;3103;49.492;8.474;2023-07-31T11:00:28;100140.56;;;22.78;50.03
6144;BME280;3103;49.492;8.474;2023-07-31T11:03:07;100147.81;;;22.74;50.00
6144;BME280;3103;49.492;8.474;2023-07-31T11:06:03;100143.97;;;22.75;49.89
6144;BME280;3103;49.492;8.474;2023-07-31T11:08:33;100128.81;;;22.77;50.28
6144;BME280;3103;49.492;8.474;2023-07-31T11:16:07;100126.34;;;22.93;49.99
6144;BME280;3103;49.492;8.474;2023-07-31T11:18:34;100115.44;;;22.85;50.03
6144;BME280;3103;49.492;8.474;2023-07-31T11:21:01;100118.91;;;23.02;49.54
6144;BME280;3103;49.492;8.474;2023-07-31T11:23:29;100111.22;;;22.96;49.67
6144;BME280;3103;49.492;8.474;2023-07-31T11:25:59;100121.50;;;22.99;50.25
6144;BME280;3103;49.492;8.474;2023-07-31T11:28:31;100110.28;;;22.83;50.61
6144;BME280;3103;49.492;8.474;2023-07-31T11:31:02;100122.84;;;22.84;51.89
6144;BME280;3103;49.492;8.474;2023-07-31T11:33:30;100120.22;;;22.96;51.45
6144;BME280;3103;49.492;8.474;2023-07-31T11:35:57;100126.34;;;22.93;52.14
6144;BME280;3103;49.492;8.474;2023-07-31T11:38:29;100102.56;;;22.85;51.11
6144;BME280;3103;49.492;8.474;2023-07-31T11:40:59;100117.66;;;22.91;51.90
6144;BME280;3103;49.492;8.474;2023-07-31T11:43:27;100118.94;;;22.94;52.07
6144;BME280;3103;49.492;8.474;2023-07-31T11:45:59;100111.69;;;22.98;50.03
6144;BME280;3103;49.492;8.474;2023-07-31T11:48:30;100095.13;;;22.86;50.29
6144;BME280;3103;49.492;8.474;2023-07-31T11:51:05;100091.53;;;22.94;50.92
6144;BME280;3103;49.492;8.474;2023-07-31T11:53:36;100090.22;;;23.00;50.66
6144;BME280;3103;49.492;8.474;2023-07-31T11:56:06;100106.47;;;23.05;50.06
6144;BME280;3103;49.492;8.474;2023-07-31T11:58:34;100084.75;;;23.00;50.07
6144;BME280;3103;49.492;8.474;2023-07-31T12:01:02;100086.22;;;22.97;49.99
6144;BME280;3103;49.492;8.474;2023-07-31T12:03:31;100089.69;;;23.06;49.65
6144;BME280;3103;49.492;8.474;2023-07-31T12:05:59;100092.63;;;23.01;49.42
6144;BME280;3103;49.492;8.474;2023-07-31T12:08:27;100080.09;;;22.92;49.91
6144;BME280;3103;49.492;8.474;2023-07-31T12:10:54;100078.38;;;22.87;49.98
6144;BME280;3103;49.492;8.474;2023-07-31T12:13:22;100080.75;;;22.97;49.95
6144;BME280;3103;49.492;8.474;2023-07-31T12:15:57;100071.66;;;23.05;49.81
6144;BME280;3103;49.492;8.474;2023-07-31T12:18:26;100070.19;;;23.08;49.87
6144;BME280;3103;49.492;8.474;2023-07-31T12:20:55;100068.75;;;23.10;49.58
6144;BME280;3103;49.492;8.474;2023-07-31T12:23:28;100071.47;;;23.10;49.34
6144;BME280;3103;49.492;8.474;2023-07-31T12:31:04;100071.66;;;23.05;49.63
6144;BME280;3103;49.492;8.474;2023-07-31T12:33:33;100068.78;;;23.02;49.59
6144;BME280;3103;49.492;8.474;2023-07-31T12:36:02;100071.19;;;23.03;49.77
6144;BME280;3103;49.492;8.474;2023-07-31T12:38:30;100062.53;;;22.93;49.60
6144;BME280;3103;49.492;8.474;2023-07-31T12:40:56;100068.91;;;23.05;49.69
6144;BME280;3103;49.492;8.474;2023-07-31T12:43:23;100061.31;;;23.11;49.17
6144;BME280;3103;49.492;8.474;2023-07-31T12:45:50;100055.97;;;23.15;48.96
6144;BME280;3103;49.492;8.474;2023-07-31T12:48:17;100049.22;;;23.12;49.04
6144;BME280;3103;49.492;8.474;2023-07-31T12:50:45;100041.06;;;23.03;49.50
6144;BME280;3103;49.492;8.474;2023-07-31T12:53:12;100042.53;;;23.22;49.44
6144;BME280;3103;49.492;8.474;2023-07-31T12:55:39;100032.38;;;23.22;49.55
6144;BME280;3103;49.492;8.474;2023-07-31T12:58:06;100032.06;;;23.24;49.71
6144;BME280;3103;49.492;8.474;2023-07-31T13:00:33;100034.72;;;23.32;49.46
6144;BME280;3103;49.492;8.474;2023-07-31T13:03:00;100029.19;;;23.41;49.45
6144;BME280;3103;49.492;8.474;2023-07-31T13:05:29;100023.63;;;23.50;49.48
6144;BME280;3103;49.492;8.474;2023-07-31T13:07:56;100006.19;;;23.54;49.39
6144;BME280;3103;49.492;8.474;2023-07-31T13:10:24;99999.28;;;23.48;49.62
6144;BME280;3103;49.492;8.474;2023-07-31T13:12:54;100007.44;;;23.57;49.36
6144;BME280;3103;49.492;8.474;2023-07-31T13:15:21;100011.59;;;23.42;49.33
6144;BME280;3103;49.492;8.474;2023-07-31T13:17:48;100004.50;;;23.41;49.19
6144;BME280;3103;49.492;8.474;2023-07-31T13:20:15;100011.38;;;23.47;49.18
6144;BME280;3103;49.492;8.474;2023-07-31T13:22:42;99999.97;;;23.45;49.26
6144;BME280;3103;49.492;8.474;2023-07-31T13:25:12;100006.78;;;23.39;49.64
6144;BME280;3103;49.492;8.474;2023-07-31T13:27:40;100013.53;;;23.42;49.76
6144;BME280;3103;49.492;8.474;2023-07-31T13:30:08;100010.91;;;23.45;50.15
6144;BME280;3103;49.492;8.474;2023-07-31T13:32:35;99998.13;;;23.49;49.89